sensor_id;sensor_type;location;lat;lon;timestamp;pressure;altitude;pressure_sealevel;temperature;humidity
64298;BME280;50639;53.270;7.956;2023-11-21T00:01:55;100936.00;;;9.44;89.40
64298;BME280;50639;53.270;7.956;2023-11-21T00:04:22;100934.16;;;9.47;89.54
64298;BME280;50639;53.270;7.956;2023-11-21T00:06:47;100941.75;;;9.50;89.40
64298;BME280;50639;53.270;7.956;2023-11-21T00:09:14;100940.50;;;9.57;89.47
64298;BME280;50639;53.270;7.956;2023-11-21T00:11:40;100941.44;;;9.56;89.28
64298;BME280;50639;53.270;7.956;2023-11-21T00:14:06;100944.59;;;9.61;89.37
64298;BME280;50639;53.270;7.956;2023-11-21T00:16:31;100934.09;;;9.64;89.27
64298;BME280;50639;53.270;7.956;2023-11-21T00:18:56;100935.47;;;9.69;88.92
64298;BME280;50639;53.270;7.956;2023-11-21T00:21:22;100936.31;;;9.70;88.95
64298;BME280;50639;53.270;7.956;2023-11-21T00:23:47;100939.75;;;9.70;89.03
64298;BME280;50639;53.270;7.956;2023-11-21T00:26:13;100943.91;;;9.73;88.94
64298;BME280;50639;53.270;7.956;2023-11-21T00:28:42;100954.28;;;9.73;89.38
64298;BME280;50639;53.270;7.956;2023-11-21T00:31:08;100952.69;;;9.70;89.11
64298;BME280;50639;53.270;7.956;2023-11-21T00:33:33;100955.09;;;9.73;89.18
64298;BME280;50639;53.270;7.956;2023-11-21T00:35:59;100956.69;;;9.76;89.26
64298;BME280;50639;53.270;7.956;2023-11-21T00:38:24;100954.84;;;9.78;89.12
64298;BME280;50639;53.270;7.956;2023-11-21T00:40:49;100944.34;;;9.81;89.03
64298;BME280;50639;53.270;7.956;2023-11-21T00:43:15;100952.31;;;9.76;88.85
64298;BME280;50639;53.270;7.956;2023-11-21T00:45:40;100951.41;;;9.77;89.10
64298;BME280;50639;53.270;7.956;2023-11-21T00:48:05;100953.00;;;9.80;89.10
64298;BME280;50639;53.270;7.956;2023-11-21T00:50:31;100957.28;;;9.81;88.89
64298;BME280;50639;53.270;7.956;2023-11-21T00:52:57;100955.03;;;9.75;89.16
64298;BME280;50639;53.270;7.956;2023-11-21T00:55:22;100961.75;;;9.77;88.75
64298;BME280;50639;53.270;7.956;2023-11-21T00:57:48;100963.19;;;9.83;88.72
64298;BME280;50639;53.270;7.956;2023-11-21T01:00:14;100960.63;;;9.83;88.95
64298;BME280;50639;53.270;7.956;2023-11-21T01:02:45;100965.88;;;9.81;88.84
64298;BME280;50639;53.270;7.956;2023-11-21T01:05:10;100965.78;;;9.83;89.33
64298;BME280;50639;53.270;7.956;2023-11-21T01:07:36;100968.38;;;9.83;89.31
64298;BME280;50639;53.270;7.956;2023-11-21T01:10:03;100981.78;;;9.90;88.77
64298;BME280;50639;53.270;7.956;2023-11-21T01:12:31;100980.78;;;9.76;88.88
64298;BME280;50639;53.270;7.956;2023-11-21T01:14:56;100987.47;;;9.80;88.78
64298;BME280;50639;53.270;7.956;2023-11-21T01:17:25;100988.47;;;9.78;88.92
64298;BME280;50639;53.270;7.956;2023-11-21T01:19:50;100999.56;;;9.80;88.72
64298;BME280;50639;53.270;7.956;2023-11-21T01:22:16;100999.56;;;9.80;88.81
64298;BME280;50639;53.270;7.956;2023-11-21T01:24:41;101004.66;;;9.81;88.90
64298;BME280;50639;53.270;7.956;2023-11-21T01:27:07;101014.94;;;9.83;88.89
64298;BME280;50639;53.270;7.956;2023-11-21T01:29:32;101025.34;;;9.81;89.02
64298;BME280;50639;53.270;7.956;2023-11-21T01:31:57;101036.19;;;9.72;88.77
64298;BME280;50639;53.270;7.956;2023-11-21T01:34:23;101036.34;;;9.69;88.94
64298;BME280;50639;53.270;7.956;2023-11-21T01:36:48;101037.38;;;9.67;89.34
64298;BME280;50639;53.270;7.956;2023-11-21T01:39:14;101043.28;;;9.69;89.55
64298;BME280;50639;53.270;7.956;2023-11-21T01:41:41;101041.38;;;9.72;89.25
64298;BME280;50639;53.270;7.956;2023-11-21T01:44:09;101047.72;;;9.67;89.04
64298;BME280;50639;53.270;7.956;2023-11-21T01:46:35;101053.78;;;9.66;89.52
64298;BME280;50639;53.270;7.956;2023-11-21T01:49:01;101053.78;;;9.66;89.46
64298;BME280;50639;53.270;7.956;2023-11-21T01:51:27;101051.03;;;9.69;89.77
64298;BME280;50639;53.270;7.956;2023-11-21T01:53:52;101046.69;;;9.69;89.74
64298;BME280;50639;53.270;7.956;2023-11-21T01:56:18;101050.88;;;9.72;89.43
64298;BME280;50639;53.270;7.956;2023-11-21T01:58:43;101062.00;;;9.74;89.75
64298;BME280;50639;53.270;7.956;2023-11-21T02:01:09;101057.81;;;9.71;89.53
64298;BME280;50639;53.270;7.956;2023-11-21T02:03:35;101061.31;;;9.70;89.27
64298;BME280;50639;53.270;7.956;2023-11-21T02:06:01;101061.38;;;9.69;89.84
64298;BME280;50639;53.270;7.956;2023-11-21T02:08:26;101062.00;;;9.74;89.59
64298;BME280;50639;53.270;7.956;2023-11-21T02:10:52;101066.81;;;9.80;89.20
64298;BME280;50639;53.270;7.956;2023-11-21T02:13:18;101060.97;;;9.76;89.34
64298;BME280;50639;53.270;7.956;2023-11-21T02:15:43;101069.56;;;9.77;89.63
64298;BME280;50639;53.270;7.956;2023-11-21T02:18:09;101064.38;;;9.77;89.57
64298;BME280;50639;53.270;7.956;2023-11-21T02:20:37;101065.91;;;9.81;89.26
64298;BME280;50639;53.270;7.956;2023-11-21T02:23:04;101073.59;;;9.82;89.43
64298;BME280;50639;53.270;7.956;2023-11-21T02:25:32;101072.56;;;9.85;89.15
64298;BME280;50639;53.270;7.956;2023-11-21T02:27:59;101076.00;;;9.86;89.21
64298;BME280;50639;53.270;7.956;2023-11-21T02:30:25;101077.44;;;9.75;89.65
64298;BME280;50639;53.270;7.956;2023-11-21T02:32:51;101082.69;;;9.74;89.44
64298;BME280;50639;53.270;7.956;2023-11-21T02:35:22;101083.75;;;9.70;89.66
64298;BME280;50639;53.270;7.956;2023-11-21T02:37:48;101085.75;;;9.65;89.64
64298;BME280;50639;53.270;7.956;2023-11-21T02:40:13;101096.50;;;9.57;89.89
64298;BME280;50639;53.270;7.956;2023-11-21T02:42:49;101098.50;;;9.68;89.60
64298;BME280;50639;53.270;7.956;2023-11-21T02:45:17;101091.34;;;9.73;89.47
64298;BME280;50639;53.270;7.956;2023-11-21T02:47:44;101093.09;;;9.72;89.46
64298;BME280;50639;53.270;7.956;2023-11-21T02:50:09;101096.44;;;9.74;89.36
64298;BME280;50639;53.270;7.956;2023-11-21T02:52:35;101092.19;;;9.73;89.60
64298;BME280;50639;53.270;7.956;2023-11-21T02:55:03;101094.59;;;9.76;89.60
64298;BME280;50639;53.270;7.956;2023-11-21T02:57:29;101094.44;;;9.79;89.30
64298;BME280;50639;53.270;7.956;2023-11-21T02:59:54;101089.59;;;9.73;89.63
64298;BME280;50639;53.270;7.956;2023-11-21T03:02:20;101108.19;;;9.64;90.17
64298;BME280;50639;53.270;7.956;2023-11-21T03:04:46;101111.75;;;9.62;90.12
64298;BME280;50639;53.270;7.956;2023-11-21T03:07:13;101111.25;;;9.55;90.50
64298;BME280;50639;53.270;7.956;2023-11-21T03:09:38;101110.00;;;9.62;90.03
64298;BME280;50639;53.270;7.956;2023-11-21T03:12:04;101115.50;;;9.56;90.35
64298;BME280;50639;53.270;7.956;2023-11-21T03:14:30;101120.63;;;9.40;90.75
64298;BME280;50639;53.270;7.956;2023-11-21T03:16:56;101126.47;;;9.44;90.79
64298;BME280;50639;53.270;7.956;2023-11-21T03:19:21;101130.25;;;9.54;90.31
64298;BME280;50639;53.270;7.956;2023-11-21T03:21:47;101131.09;;;9.55;90.67
64298;BME280;50639;53.270;7.956;2023-11-21T03:24:12;101136.13;;;9.58;90.42
64298;BME280;50639;53.270;7.956;2023-11-21T03:26:38;101137.63;;;9.62;90.35
64298;BME280;50639;53.270;7.956;2023-11-21T03:29:03;101143.47;;;9.65;90.26
64298;BME280;50639;53.270;7.956;2023-11-21T03:31:30;101142.47;;;9.68;90.05
64298;BME280;50639;53.270;7.956;2023-11-21T03:33:55;101144.00;;;9.72;90.00
64298;BME280;50639;53.270;7.956;2023-11-21T03:36:20;101146.66;;;9.70;90.16
64298;BME280;50639;53.270;7.956;2023-11-21T03:38:48;101147.56;;;9.69;89.67
64298;BME280;50639;53.270;7.956;2023-11-21T03:41:13;101152.00;;;9.67;89.95
64298;BME280;50639;53.270;7.956;2023-11-21T03:43:39;101150.47;;;9.63;89.76
64298;BME280;50639;53.270;7.956;2023-11-21T03:46:05;101157.53;;;9.60;90.22
64298;BME280;50639;53.270;7.956;2023-11-21T03:48:31;101161.03;;;9.59;90.02
64298;BME280;50639;53.270;7.956;2023-11-21T03:50:58;101164.38;;;9.61;90.05
64298;BME280;50639;53.270;7.956;2023-11-21T03:53:23;101162.88;;;9.57;90.36
64298;BME280;50639;53.270;7.956;2023-11-21T03:55:49;101167.16;;;9.58;90.20
64298;BME280;50639;53.270;7.956;2023-11-21T03:58:15;101173.91;;;9.60;89.96
64298;BME280;50639;53.270;7.956;2023-11-21T04:00:40;101167.50;;;9.50;89.99
64298;BME280;50639;53.270;7.956;2023-11-21T04:03:06;101183.13;;;9.49;89.94
64298;BME280;50639;53.270;7.956;2023-11-21T04:05:31;101181.91;;;9.38;90.60
64298;BME280;50639;53.270;7.956;2023-11-21T04:07:56;101182.13;;;9.34;90.30
64298;BME280;50639;53.270;7.956;2023-11-21T04:10:22;101196.19;;;9.28;90.55
64298;BME280;50639;53.270;7.956;2023-11-21T04:12:47;101199.81;;;9.24;90.77
64298;BME280;50639;53.270;7.956;2023-11-21T04:15:13;101202.41;;;9.24;90.91
64298;BME280;50639;53.270;7.956;2023-11-21T04:17:40;101210.53;;;9.17;90.34
64298;BME280;50639;53.270;7.956;2023-11-21T04:20:06;101216.06;;;9.09;90.68
64298;BME280;50639;53.270;7.956;2023-11-21T04:22:42;101219.44;;;9.11;90.54
64298;BME280;50639;53.270;7.956;2023-11-21T04:25:12;101218.66;;;9.09;90.37
64298;BME280;50639;53.270;7.956;2023-11-21T04:27:41;101229.91;;;9.08;90.60
64298;BME280;50639;53.270;7.956;2023-11-21T04:30:09;101234.69;;;9.16;90.35
64298;BME280;50639;53.270;7.956;2023-11-21T04:32:35;101232.03;;;9.17;89.55
64298;BME280;50639;53.270;7.956;2023-11-21T04:35:00;101230.38;;;9.16;89.28
64298;BME280;50639;53.270;7.956;2023-11-21T04:37:26;101241.97;;;9.07;89.56
64298;BME280;50639;53.270;7.956;2023-11-21T04:39:51;101251.47;;;9.07;89.59
64298;BME280;50639;53.270;7.956;2023-11-21T04:42:17;101250.72;;;9.05;89.89
64298;BME280;50639;53.270;7.956;2023-11-21T04:44:42;101249.13;;;9.02;89.52
64298;BME280;50639;53.270;7.956;2023-11-21T04:47:09;101254.16;;;9.05;89.59
64298;BME280;50639;53.270;7.956;2023-11-21T04:49:34;101261.75;;;9.09;89.34
64298;BME280;50639;53.270;7.956;2023-11-21T04:52:00;101255.75;;;9.08;89.00
64298;BME280;50639;53.270;7.956;2023-11-21T04:54:26;101264.06;;;8.96;89.40
64298;BME280;50639;53.270;7.956;2023-11-21T04:56:52;101271.72;;;8.97;89.16
64298;BME280;50639;53.270;7.956;2023-11-21T04:59:17;101277.13;;;8.93;88.80
64298;BME280;50639;53.270;7.956;2023-11-21T05:01:42;101273.78;;;8.91;89.13
64298;BME280;50639;53.270;7.956;2023-11-21T05:04:08;101281.03;;;8.83;89.20
64298;BME280;50639;53.270;7.956;2023-11-21T05:06:34;101281.81;;;8.85;89.20
64298;BME280;50639;53.270;7.956;2023-11-21T05:08:59;101293.81;;;8.86;89.25
64298;BME280;50639;53.270;7.956;2023-11-21T05:11:28;101300.91;;;8.81;89.31
64298;BME280;50639;53.270;7.956;2023-11-21T05:13:54;101305.97;;;8.84;89.74
64298;BME280;50639;53.270;7.956;2023-11-21T05:16:21;101306.03;;;8.82;89.46
64298;BME280;50639;53.270;7.956;2023-11-21T05:18:47;101321.53;;;8.82;89.27
64298;BME280;50639;53.270;7.956;2023-11-21T05:21:13;101322.44;;;8.81;89.15
64298;BME280;50639;53.270;7.956;2023-11-21T05:23:38;101326.91;;;8.78;89.16
64298;BME280;50639;53.270;7.956;2023-11-21T05:26:03;101334.72;;;8.76;89.28
64298;BME280;50639;53.270;7.956;2023-11-21T05:28:29;101338.34;;;8.72;89.08
64298;BME280;50639;53.270;7.956;2023-11-21T05:30:54;101334.06;;;8.71;89.16
64298;BME280;50639;53.270;7.956;2023-11-21T05:33:20;101331.66;;;8.68;89.34
64298;BME280;50639;53.270;7.956;2023-11-21T05:35:46;101336.88;;;8.66;89.23
64298;BME280;50639;53.270;7.956;2023-11-21T05:38:13;101335.41;;;8.61;89.58
64298;BME280;50639;53.270;7.956;2023-11-21T05:40:38;101346.81;;;8.55;89.31
64298;BME280;50639;53.270;7.956;2023-11-21T05:43:03;101346.56;;;8.61;89.14
64298;BME280;50639;53.270;7.956;2023-11-21T05:45:30;101340.69;;;8.58;88.91
64298;BME280;50639;53.270;7.956;2023-11-21T05:47:55;101351.97;;;8.55;89.04
64298;BME280;50639;53.270;7.956;2023-11-21T05:50:21;101353.78;;;8.53;89.18
64298;BME280;50639;53.270;7.956;2023-11-21T05:52:47;101365.03;;;8.52;89.40
64298;BME280;50639;53.270;7.956;2023-11-21T05:55:13;101364.81;;;8.57;89.62
64298;BME280;50639;53.270;7.956;2023-11-21T05:57:40;101377.56;;;8.61;89.49
64298;BME280;50639;53.270;7.956;2023-11-21T06:00:07;101382.78;;;8.60;89.26
64298;BME280;50639;53.270;7.956;2023-11-21T06:02:39;101386.31;;;8.57;89.62
64298;BME280;50639;53.270;7.956;2023-11-21T06:05:09;101391.50;;;8.57;89.50
64298;BME280;50639;53.270;7.956;2023-11-21T06:07:34;101392.06;;;8.64;89.22
64298;BME280;50639;53.270;7.956;2023-11-21T06:10:02;101403.78;;;8.71;89.34
64298;BME280;50639;53.270;7.956;2023-11-21T06:12:28;101406.47;;;8.70;89.19
64298;BME280;50639;53.270;7.956;2023-11-21T06:14:53;101393.72;;;8.65;89.09
64298;BME280;50639;53.270;7.956;2023-11-21T06:17:19;101405.97;;;8.61;88.95
64298;BME280;50639;53.270;7.956;2023-11-21T06:19:45;101419.00;;;8.58;89.03
64298;BME280;50639;53.270;7.956;2023-11-21T06:22:11;101430.16;;;8.59;88.57
64298;BME280;50639;53.270;7.956;2023-11-21T06:24:36;101426.69;;;8.60;88.64
64298;BME280;50639;53.270;7.956;2023-11-21T06:27:04;101437.00;;;8.60;88.60
64298;BME280;50639;53.270;7.956;2023-11-21T06:29:30;101440.75;;;8.53;88.31
64298;BME280;50639;53.270;7.956;2023-11-21T06:31:55;101446.03;;;8.50;88.06
64298;BME280;50639;53.270;7.956;2023-11-21T06:34:20;101449.41;;;8.52;88.03
64298;BME280;50639;53.270;7.956;2023-11-21T06:36:47;101463.16;;;8.52;88.08
64298;BME280;50639;53.270;7.956;2023-11-21T06:39:12;101462.47;;;8.47;88.24
64298;BME280;50639;53.270;7.956;2023-11-21T06:41:40;101467.84;;;8.43;87.90
64298;BME280;50639;53.270;7.956;2023-11-21T06:44:05;101463.00;;;8.35;88.14
64298;BME280;50639;53.270;7.956;2023-11-21T06:46:31;101470.03;;;8.30;88.11
64298;BME280;50639;53.270;7.956;2023-11-21T06:48:56;101468.66;;;8.21;88.47
64298;BME280;50639;53.270;7.956;2023-11-21T06:51:21;101478.41;;;8.15;88.57
64298;BME280;50639;53.270;7.956;2023-11-21T06:53:46;101481.16;;;8.10;88.31
64298;BME280;50639;53.270;7.956;2023-11-21T06:56:18;101494.53;;;7.98;88.60
64298;BME280;50639;53.270;7.956;2023-11-21T06:58:45;101500.94;;;7.88;88.69
64298;BME280;50639;53.270;7.956;2023-11-21T07:01:11;101504.78;;;7.78;88.90
64298;BME280;50639;53.270;7.956;2023-11-21T07:03:36;101513.59;;;7.72;88.96
64298;BME280;50639;53.270;7.956;2023-11-21T07:06:03;101511.91;;;7.71;89.06
64298;BME280;50639;53.270;7.956;2023-11-21T07:08:28;101523.22;;;7.67;89.39
64298;BME280;50639;53.270;7.956;2023-11-21T07:10:54;101526.94;;;7.60;89.23
64298;BME280;50639;53.270;7.956;2023-11-21T07:13:19;101522.72;;;7.57;89.00
64298;BME280;50639;53.270;7.956;2023-11-21T07:15:44;101528.75;;;7.56;88.98
64298;BME280;50639;53.270;7.956;2023-11-21T07:18:10;101530.44;;;7.57;88.83
64298;BME280;50639;53.270;7.956;2023-11-21T07:20:36;101532.25;;;7.55;88.87
64298;BME280;50639;53.270;7.956;2023-11-21T07:23:02;101534.00;;;7.55;88.22
64298;BME280;50639;53.270;7.956;2023-11-21T07:25:29;101540.25;;;7.48;89.10
64298;BME280;50639;53.270;7.956;2023-11-21T07:27:54;101537.78;;;7.45;89.09
64298;BME280;50639;53.270;7.956;2023-11-21T07:30:20;101546.31;;;7.47;88.97
64298;BME280;50639;53.270;7.956;2023-11-21T07:32:47;101550.63;;;7.46;88.84
64298;BME280;50639;53.270;7.956;2023-11-21T07:35:13;101557.28;;;7.52;88.51
64298;BME280;50639;53.270;7.956;2023-11-21T07:37:38;101566.03;;;7.48;88.71
64298;BME280;50639;53.270;7.956;2023-11-21T07:40:04;101560.88;;;7.48;88.55
64298;BME280;50639;53.270;7.956;2023-11-21T07:42:30;101565.81;;;7.54;88.78
64298;BME280;50639;53.270;7.956;2023-11-21T07:44:55;101572.44;;;7.61;88.19
64298;BME280;50639;53.270;7.956;2023-11-21T07:47:21;101579.78;;;7.72;87.68
64298;BME280;50639;53.270;7.956;2023-11-21T07:49:47;101593.38;;;7.75;87.88
64298;BME280;50639;53.270;7.956;2023-11-21T07:52:13;101595.78;;;7.81;87.82
64298;BME280;50639;53.270;7.956;2023-11-21T07:54:40;101593.75;;;7.89;87.36
64298;BME280;50639;53.270;7.956;2023-11-21T07:57:05;101602.44;;;7.87;86.88
64298;BME280;50639;53.270;7.956;2023-11-21T07:59:30;101607.44;;;7.91;87.10
64298;BME280;50639;53.270;7.956;2023-11-21T08:01:56;101610.69;;;7.97;86.84
64298;BME280;50639;53.270;7.956;2023-11-21T08:04:21;101614.81;;;8.01;86.62
64298;BME280;50639;53.270;7.956;2023-11-21T08:06:47;101616.16;;;8.11;86.87
64298;BME280;50639;53.270;7.956;2023-11-21T08:09:12;101614.91;;;8.21;86.37
64298;BME280;50639;53.270;7.956;2023-11-21T08:11:38;101637.09;;;8.26;85.87
64298;BME280;50639;53.270;7.956;2023-11-21T08:14:04;101632.63;;;8.30;85.73
64298;BME280;50639;53.270;7.956;2023-11-21T08:16:30;101647.41;;;8.26;85.50
64298;BME280;50639;53.270;7.956;2023-11-21T08:18:55;101655.06;;;8.28;84.97
64298;BME280;50639;53.270;7.956;2023-11-21T08:21:21;101658.41;;;8.32;84.89
64298;BME280;50639;53.270;7.956;2023-11-21T08:23:49;101655.00;;;8.29;84.21
64298;BME280;50639;53.270;7.956;2023-11-21T08:26:18;101664.97;;;8.17;84.38
64298;BME280;50639;53.270;7.956;2023-11-21T08:28:44;101668.53;;;8.13;84.19
64298;BME280;50639;53.270;7.956;2023-11-21T08:31:09;101660.91;;;8.10;84.21
64298;BME280;50639;53.270;7.956;2023-11-21T08:33:34;101670.19;;;8.15;83.97
64298;BME280;50639;53.270;7.956;2023-11-21T08:36:00;101673.59;;;8.16;84.26
64298;BME280;50639;53.270;7.956;2023-11-21T08:38:26;101681.34;;;8.16;84.08
64298;BME280;50639;53.270;7.956;2023-11-21T08:40:53;101685.63;;;8.17;83.47
64298;BME280;50639;53.270;7.956;2023-11-21T08:43:19;101692.84;;;8.07;84.04
64298;BME280;50639;53.270;7.956;2023-11-21T08:45:45;101691.03;;;8.09;83.92
64298;BME280;50639;53.270;7.956;2023-11-21T08:48:10;101700.44;;;8.10;83.71
64298;BME280;50639;53.270;7.956;2023-11-21T08:50:37;101707.19;;;8.14;84.20
64298;BME280;50639;53.270;7.956;2023-11-21T08:53:02;101716.09;;;8.06;83.51
64298;BME280;50639;53.270;7.956;2023-11-21T08:55:27;101720.38;;;8.07;83.31
64298;BME280;50639;53.270;7.956;2023-11-21T08:57:54;101717.09;;;8.02;83.35
64298;BME280;50639;53.270;7.956;2023-11-21T09:00:20;101722.06;;;8.08;83.46
64298;BME280;50639;53.270;7.956;2023-11-21T09:02:47;101725.09;;;8.19;83.54
64298;BME280;50639;53.270;7.956;2023-11-21T09:05:13;101722.25;;;8.26;83.57
64298;BME280;50639;53.270;7.956;2023-11-21T09:07:40;101730.59;;;8.35;83.55
64298;BME280;50639;53.270;7.956;2023-11-21T09:10:07;101733.03;;;8.38;83.01
64298;BME280;50639;53.270;7.956;2023-11-21T09:12:33;101739.66;;;8.45;82.86
64298;BME280;50639;53.270;7.956;2023-11-21T09:15:00;101745.00;;;8.40;82.48
64298;BME280;50639;53.270;7.956;2023-11-21T09:17:25;101743.06;;;8.45;82.62
64298;BME280;50639;53.270;7.956;2023-11-21T09:19:50;101747.19;;;8.51;82.30
64298;BME280;50639;53.270;7.956;2023-11-21T09:22:17;101757.28;;;8.57;81.87
64298;BME280;50639;53.270;7.956;2023-11-21T09:24:43;101750.19;;;8.62;82.33
64298;BME280;50639;53.270;7.956;2023-11-21T09:27:08;101761.16;;;8.68;82.15
64298;BME280;50639;53.270;7.956;2023-11-21T09:29:35;101757.72;;;8.68;82.07
64298;BME280;50639;53.270;7.956;2023-11-21T09:32:00;101757.50;;;8.74;81.46
64298;BME280;50639;53.270;7.956;2023-11-21T09:34:26;101769.13;;;8.86;81.30
64298;BME280;50639;53.270;7.956;2023-11-21T09:36:52;101767.31;;;8.88;80.89
64298;BME280;50639;53.270;7.956;2023-11-21T09:39:17;101776.19;;;8.81;81.28
64298;BME280;50639;53.270;7.956;2023-11-21T09:41:49;101778.59;;;8.85;80.78
64298;BME280;50639;53.270;7.956;2023-11-21T09:44:18;101784.81;;;8.80;80.52
64298;BME280;50639;53.270;7.956;2023-11-21T09:46:47;101794.41;;;8.78;80.11
64298;BME280;50639;53.270;7.956;2023-11-21T09:49:18;101795.28;;;8.77;80.15
64298;BME280;50639;53.270;7.956;2023-11-21T09:51:48;101802.44;;;8.70;79.81
64298;BME280;50639;53.270;7.956;2023-11-21T09:54:15;101806.75;;;8.70;80.33
64298;BME280;50639;53.270;7.956;2023-11-21T09:56:41;101809.19;;;8.73;80.33
64298;BME280;50639;53.270;7.956;2023-11-21T09:59:11;101812.56;;;8.75;80.57
64298;BME280;50639;53.270;7.956;2023-11-21T10:01:38;101817.94;;;8.70;80.12
64298;BME280;50639;53.270;7.956;2023-11-21T10:04:04;101816.06;;;8.74;80.45
64298;BME280;50639;53.270;7.956;2023-11-21T10:06:31;101824.53;;;8.77;80.04
64298;BME280;50639;53.270;7.956;2023-11-21T10:08:59;101828.59;;;8.84;80.45
64298;BME280;50639;53.270;7.956;2023-11-21T10:11:28;101826.84;;;8.85;79.45
64298;BME280;50639;53.270;7.956;2023-11-21T10:13:55;101831.22;;;8.83;79.60
64298;BME280;50639;53.270;7.956;2023-11-21T10:16:22;101834.69;;;8.82;80.29
64298;BME280;50639;53.270;7.956;2023-11-21T10:18:52;101837.88;;;8.88;78.78
64298;BME280;50639;53.270;7.956;2023-11-21T10:21:20;101834.66;;;8.83;79.28
64298;BME280;50639;53.270;7.956;2023-11-21T10:23:47;101844.75;;;8.89;79.79
64298;BME280;50639;53.270;7.956;2023-11-21T10:26:12;101844.19;;;8.81;79.80
64298;BME280;50639;53.270;7.956;2023-11-21T10:29:01;101842.09;;;8.91;79.53
64298;BME280;50639;53.270;7.956;2023-11-21T10:31:32;101841.22;;;8.92;79.54
64298;BME280;50639;53.270;7.956;2023-11-21T10:34:30;101850.59;;;8.94;79.17
64298;BME280;50639;53.270;7.956;2023-11-21T10:36:56;101849.69;;;8.95;79.63
64298;BME280;50639;53.270;7.956;2023-11-21T10:39:23;101840.97;;;8.98;79.97
64298;BME280;50639;53.270;7.956;2023-11-21T10:41:53;101853.88;;;8.98;79.47
64298;BME280;50639;53.270;7.956;2023-11-21T10:44:20;101852.91;;;9.02;79.64
64298;BME280;50639;53.270;7.956;2023-11-21T10:46:55;101855.47;;;9.02;79.62
64298;BME280;50639;53.270;7.956;2023-11-21T10:49:26;101855.19;;;9.10;79.25
64298;BME280;50639;53.270;7.956;2023-11-21T10:51:53;101867.09;;;8.90;79.17
64298;BME280;50639;53.270;7.956;2023-11-21T10:54:23;101867.16;;;8.89;79.79
64298;BME280;50639;53.270;7.956;2023-11-21T10:56:51;101867.09;;;8.90;79.40
64298;BME280;50639;53.270;7.956;2023-11-21T10:59:18;101868.69;;;8.94;79.27
64298;BME280;50639;53.270;7.956;2023-11-21T11:01:46;101867.44;;;9.04;79.08
64298;BME280;50639;53.270;7.956;2023-11-21T11:04:15;101867.94;;;9.14;78.85
64298;BME280;50639;53.270;7.956;2023-11-21T11:06:45;101868.94;;;9.10;79.32
64298;BME280;50639;53.270;7.956;2023-11-21T11:09:16;101871.38;;;9.15;79.00
64298;BME280;50639;53.270;7.956;2023-11-21T11:11:43;101865.22;;;9.17;78.39
64298;BME280;50639;53.270;7.956;2023-11-21T11:14:13;101867.75;;;9.19;78.24
64298;BME280;50639;53.270;7.956;2023-11-21T11:16:40;101870.59;;;9.13;77.85
64298;BME280;50639;53.270;7.956;2023-11-21T11:19:11;101878.91;;;9.21;78.31
64298;BME280;50639;53.270;7.956;2023-11-21T11:33:25;101901.66;;;9.11;78.96
64298;BME280;50639;53.270;7.956;2023-11-21T11:36:02;101904.56;;;9.02;79.03
64298;BME280;50639;53.270;7.956;2023-11-21T11:38:33;101912.44;;;8.99;79.52
64298;BME280;50639;53.270;7.956;2023-11-21T11:41:02;101916.66;;;9.01;78.85
64298;BME280;50639;53.270;7.956;2023-11-21T11:43:31;101913.59;;;8.90;79.41
64298;BME280;50639;53.270;7.956;2023-11-21T11:46:09;101918.72;;;8.92;80.06
64298;BME280;50639;53.270;7.956;2023-11-21T11:48:38;101908.34;;;8.93;79.93
64298;BME280;50639;53.270;7.956;2023-11-21T11:51:15;101912.00;;;8.88;79.48
64298;BME280;50639;53.270;7.956;2023-11-21T11:53:42;101915.13;;;8.71;79.98
64298;BME280;50639;53.270;7.956;2023-11-21T11:56:28;101918.53;;;8.73;79.75
64298;BME280;50639;53.270;7.956;2023-11-21T11:58:58;101920.06;;;8.79;79.73
64298;BME280;50639;53.270;7.956;2023-11-21T12:01:26;101928.53;;;8.82;80.24
64298;BME280;50639;53.270;7.956;2023-11-21T12:06:46;101936.84;;;8.90;80.40
64298;BME280;50639;53.270;7.956;2023-11-21T12:09:18;101943.56;;;8.96;80.25
64298;BME280;50639;53.270;7.956;2023-11-21T12:11:46;101945.91;;;9.02;80.30
64298;BME280;50639;53.270;7.956;2023-11-21T12:14:12;101952.22;;;8.95;80.05
64298;BME280;50639;53.270;7.956;2023-11-21T12:16:39;101951.13;;;9.00;79.71
64298;BME280;50639;53.270;7.956;2023-11-21T12:19:04;101953.28;;;9.13;78.92
64298;BME280;50639;53.270;7.956;2023-11-21T12:21:30;101956.69;;;9.15;78.10
64298;BME280;50639;53.270;7.956;2023-11-21T12:23:57;101954.13;;;9.13;78.25
64298;BME280;50639;53.270;7.956;2023-11-21T12:26:27;101959.41;;;9.10;78.00
64298;BME280;50639;53.270;7.956;2023-11-21T12:28:55;101959.06;;;9.19;77.71
64298;BME280;50639;53.270;7.956;2023-11-21T12:31:21;101952.22;;;9.18;77.96
64298;BME280;50639;53.270;7.956;2023-11-21T12:33:47;101957.28;;;9.21;77.93
64298;BME280;50639;53.270;7.956;2023-11-21T12:36:12;101962.09;;;9.07;76.84
64298;BME280;50639;53.270;7.956;2023-11-21T12:38:38;101968.91;;;9.10;77.42
64298;BME280;50639;53.270;7.956;2023-11-21T12:41:03;101974.13;;;9.08;76.61
64298;BME280;50639;53.270;7.956;2023-11-21T12:43:30;101973.19;;;9.11;77.32
64298;BME280;50639;53.270;7.956;2023-11-21T12:46:11;101971.44;;;9.11;77.10
64298;BME280;50639;53.270;7.956;2023-11-21T12:48:41;101982.75;;;9.07;77.00
64298;BME280;50639;53.270;7.956;2023-11-21T12:51:10;101987.88;;;9.09;77.20
64298;BME280;50639;53.270;7.956;2023-11-21T12:53:37;101985.34;;;9.07;77.24
64298;BME280;50639;53.270;7.956;2023-11-21T12:56:09;101986.75;;;8.92;77.04
64298;BME280;50639;53.270;7.956;2023-11-21T12:58:37;102005.25;;;9.05;77.15
64298;BME280;50639;53.270;7.956;2023-11-21T13:01:05;102000.97;;;9.04;77.03
64298;BME280;50639;53.270;7.956;2023-11-21T13:03:35;102000.09;;;9.05;76.46
64298;BME280;50639;53.270;7.956;2023-11-21T13:06:01;102006.47;;;8.95;76.64
64298;BME280;50639;53.270;7.956;2023-11-21T13:08:27;102004.69;;;8.97;77.00
64298;BME280;50639;53.270;7.956;2023-11-21T13:10:56;102002.03;;;8.98;76.76
64298;BME280;50639;53.270;7.956;2023-11-21T13:13:22;102004.69;;;8.97;76.70